Fortune Wing — VRHW2 — position and weather

sailwx.info

Track history (hours):
 
Tides and Currents Weather Stations Pressure Air Temp Water Temp Dewpoint Dewpoint Depression Visibility Wind Speed Wind Dir Waves Ship Positions

Fortune Wing

Last reported at 2017-Mar-07 17:29 UTC. Time now 2017-Mar-25 09:57 UTC.
Position N 01°57' E 102°14'.
Warning: this ship's position is 17 days out of date.

Length 190 m; draft 12.5 m.

Type: Cargo ship. MMSI: 477389500.

Date/timePositionNaut miles runAvg speedWind from/ knotsBaromVisibWave heightAir tempDewpointWater temp
2017-Mar-07 17:29N 01°57' E 102°14'1112.1
2017-Mar-07 16:33N 01°52' E 102°24'1412.4
2017-Mar-07 15:27N 01°46' E 102°36'3812.5
2017-Mar-07 12:26N 01°27' E 103°08'1011.9
2017-Mar-07 11:33N 01°20' E 103°17'1111.6
2017-Mar-07 10:33N 01°14' E 103°26'1211.8
2017-Mar-07 09:33N 01°12' E 103°38'1010.3
2017-Mar-07 08:33N 01°11' E 103°48'1111.4
2017-Mar-07 07:33N 01°16' E 103°58'2 2.1
2017-Mar-07 06:31N 01°17' E 103°60'0 0.1
2017-Mar-07 05:28N 01°17' E 103°60'0 0.0
2017-Mar-07 04:31N 01°17' E 103°60'0 0.0
2017-Mar-07 03:28N 01°17' E 103°60'0 0.0
2017-Mar-07 02:31N 01°17' E 103°60'0 0.0
2017-Mar-07 01:22N 01°17' E 103°60'0 0.1
2017-Mar-07 00:31N 01°17' E 103°60'0 0.1
2017-Mar-06 23:31N 01°17' E 103°60'0 0.1
2017-Mar-06 22:31N 01°17' E 103°60'0 0.1
2017-Mar-06 21:31N 01°17' E 103°60'0 0.1
2017-Mar-06 20:31N 01°17' E 103°59'0 0.1
2017-Mar-06 19:33N 01°17' E 103°60'2 1.7
2017-Mar-06 18:33N 01°16' E 104°00'7 7.2
2017-Mar-06 17:33N 01°17' E 104°07'  
Track history (hours):
 
Tides and Currents Weather Stations Pressure Air Temp Water Temp Dewpoint Dewpoint Depression Visibility Wind Speed Wind Dir Waves Ship Positions

Fortune Wing

Last reported at 2017-Mar-07 17:29 UTC. Time now 2017-Mar-25 09:57 UTC.
Position N 01°57' E 102°14'.
Warning: this ship's position is 17 days out of date.

Length 190 m; draft 12.5 m.

Type: Cargo ship. MMSI: 477389500.

Date/timePositionNaut miles runAvg speedWind from/ knotsBaromVisibWave heightAir tempDewpointWater temp
2017-Mar-07 17:29N 01°57' E 102°14'1112.1
2017-Mar-07 16:33N 01°52' E 102°24'1412.4
2017-Mar-07 15:27N 01°46' E 102°36'3812.5
2017-Mar-07 12:26N 01°27' E 103°08'1011.9
2017-Mar-07 11:33N 01°20' E 103°17'1111.6
2017-Mar-07 10:33N 01°14' E 103°26'1211.8
2017-Mar-07 09:33N 01°12' E 103°38'1010.3
2017-Mar-07 08:33N 01°11' E 103°48'1111.4
2017-Mar-07 07:33N 01°16' E 103°58'2 2.1
2017-Mar-07 06:31N 01°17' E 103°60'0 0.1
2017-Mar-07 05:28N 01°17' E 103°60'0 0.0
2017-Mar-07 04:31N 01°17' E 103°60'0 0.0
2017-Mar-07 03:28N 01°17' E 103°60'0 0.0
2017-Mar-07 02:31N 01°17' E 103°60'0 0.0
2017-Mar-07 01:22N 01°17' E 103°60'0 0.1
2017-Mar-07 00:31N 01°17' E 103°60'0 0.1
2017-Mar-06 23:31N 01°17' E 103°60'0 0.1
2017-Mar-06 22:31N 01°17' E 103°60'0 0.1
2017-Mar-06 21:31N 01°17' E 103°60'0 0.1
2017-Mar-06 20:31N 01°17' E 103°59'0 0.1
2017-Mar-06 19:33N 01°17' E 103°60'2 1.7
2017-Mar-06 18:33N 01°16' E 104°00'7 7.2
2017-Mar-06 17:33N 01°17' E 104°07'  

Dump ship's entire track history